This is the latest recevied weather packets stored in our database for station/object HK6RM-21. If no packets are shown the sender has not sent any weather packets the latest 10 day(s).
| Time | Temp. | Humidity | Pressure | Rain* | Wind** | Luminosity | Snow |
|---|---|---|---|---|---|---|---|
| 1788133490 | 82° F | 68% | 756.1 mmHg | 0 in | - | - | - |
| 1788132770 | 87° F | 62% | 756.1 mmHg | 0 in | - | - | - |
| 1788132049 | 87° F | 62% | 755.3 mmHg | 0 in | - | - | - |
| 1788131173 | 87° F | 62% | 755.3 mmHg | 0 in | - | - | - |
| 1788130453 | 87° F | 62% | 755.3 mmHg | 0 in | - | - | - |
| 1788129732 | 87° F | 62% | 755.3 mmHg | 0 in | - | - | - |
| 1788129012 | 87° F | 62% | 755.3 mmHg | 0 in | - | - | - |
| 1788126849 | 87° F | 62% | 754.6 mmHg | 0 in | - | - | - |
| 1788126128 | 87° F | 62% | 754.6 mmHg | 0 in | - | - | - |
| 1788125408 | 87° F | 62% | 754.6 mmHg | 0 in | - | - | - |
| 1788124687 | 87° F | 62% | 755.3 mmHg | 0 in | - | - | - |
| 1788123967 | 87° F | 62% | 754.6 mmHg | 0 in | - | - | - |
| 1788123246 | 87° F | 62% | 754.6 mmHg | 0 in | - | - | - |
| 1788122526 | 87° F | 62% | 754.6 mmHg | 0 in | - | - | - |
| 1788121805 | 87° F | 62% | 754.6 mmHg | 0 in | - | - | - |
| 1788121085 | 86° F | 70% | 756.1 mmHg | 0 in | - | - | - |
| 1788120365 | 85° F | 71% | 756.1 mmHg | 0 in | - | - | - |
| 1788119644 | 86° F | 62% | 755.3 mmHg | 0 in | - | - | - |
| 1788118924 | 86° F | 62% | 755.3 mmHg | 0 in | - | - | - |
| 1788118203 | 86° F | 62% | 755.3 mmHg | 0 in | - | - | - |
| 1788117483 | 86° F | 69% | 756.8 mmHg | 0 in | - | - | - |
| 1788116762 | 86° F | 70% | 756.8 mmHg | 0 in | - | - | - |
| 1788116042 | 87° F | 60% | 755.3 mmHg | 0 in | - | - | - |
| 1788115321 | 87° F | 60% | 755.3 mmHg | 0 in | - | - | - |
| 1788114601 | 87° F | 61% | 755.3 mmHg | 0 in | - | - | - |
* Rain latest hour (hover to see other rain measurements)
** Current wind speed in m/s (hover to see current wind gust speed)